Time;durP1;ratioP1;P1;durP2;ratioP2;P2;SDS_P1;SDS_P2;PMS_P1;PMS_P2;Temp;Humidity;BMP_temperature;BMP_pressure;BME280_temperature;BME280_humidity;BME280_pressure;Samples;Min_cycle;Max_cycle;Signal;HPM_P1;HPM_P2
2022/07/15 00:01:46;;;;;;;9.02;3.40;;;16.70;99.90;;;;;;5069928;28;20398;-60
2022/07/15 00:04:12;;;;;;;9.95;2.97;;;16.70;99.90;;;;;;5054453;28;20079;-61
2022/07/15 00:06:37;;;;;;;13.13;3.63;;;16.70;99.90;;;;;;5054762;28;20032;-60
2022/07/15 00:09:03;;;;;;;15.02;3.45;;;16.60;99.90;;;;;;5054672;28;20386;-61
2022/07/15 00:11:29;;;;;;;9.73;3.63;;;16.70;99.90;;;;;;5054725;28;20036;-60
2022/07/15 00:13:55;;;;;;;8.63;3.55;;;16.70;99.90;;;;;;5054393;28;20021;-60
2022/07/15 00:16:21;;;;;;;10.95;3.63;;;16.60;99.90;;;;;;5054373;28;20033;-58
2022/07/15 00:18:46;;;;;;;11.43;3.35;;;16.60;99.90;;;;;;5054631;28;20090;-60
2022/07/15 00:21:12;;;;;;;10.07;3.38;;;16.60;99.90;;;;;;5054222;28;20025;-59
2022/07/15 00:23:38;;;;;;;9.25;3.90;;;16.50;99.90;;;;;;5053052;28;20553;-61
2022/07/15 00:26:04;;;;;;;10.57;3.63;;;16.40;99.90;;;;;;5052871;28;20489;-60
2022/07/15 00:28:30;;;;;;;9.85;3.15;;;16.40;99.90;;;;;;5054512;28;20061;-59
2022/07/15 00:30:56;;;;;;;12.60;3.58;;;16.30;99.90;;;;;;5053858;28;20017;-59
2022/07/15 00:33:22;;;;;;;9.93;3.55;;;16.20;99.90;;;;;;5053918;28;20029;-61
2022/07/15 00:35:47;;;;;;;9.93;3.58;;;16.20;99.90;;;;;;5053766;28;20033;-59
2022/07/15 00:38:13;;;;;;;8.63;3.58;;;16.20;99.90;;;;;;5054016;28;20031;-60
2022/07/15 00:40:43;;;;;;;8.65;3.35;;;16.10;99.90;;;;;;5053736;28;20029;-60
2022/07/15 00:43:10;;;;;;;10.48;3.80;;;16.10;99.90;;;;;;5052979;28;20029;-59
2022/07/15 00:45:35;;;;;;;12.48;3.55;;;16.00;99.90;;;;;;5053830;28;20025;-59
2022/07/15 00:48:02;;;;;;;9.93;4.00;;;16.00;99.90;;;;;;5053924;28;20021;-60
2022/07/15 00:50:29;;;;;;;11.00;4.63;;;16.00;99.90;;;;;;5053532;28;20521;-60
2022/07/15 00:53:05;;;;;;;11.48;4.68;;;15.90;99.90;;;;;;5053216;28;20150;-60
2022/07/15 00:55:32;;;;;;;11.27;4.60;;;16.00;99.90;;;;;;5052078;28;20033;-60
2022/07/15 00:58:02;;;;;;;13.98;3.67;;;15.90;99.90;;;;;;5052327;28;20501;-60
2022/07/15 01:00:28;;;;;;;10.75;3.85;;;15.80;99.90;;;;;;5053261;28;20029;-60
2022/07/15 01:02:54;;;;;;;9.30;3.55;;;15.80;99.90;;;;;;5053611;28;20032;-60
2022/07/15 01:05:21;;;;;;;10.38;4.70;;;15.80;99.90;;;;;;5052397;28;20111;-60
2022/07/15 01:07:51;;;;;;;7.47;4.18;;;15.80;99.90;;;;;;5053395;28;20025;-60
2022/07/15 01:10:19;;;;;;;11.80;4.20;;;15.80;99.90;;;;;;5053040;28;20029;-60
2022/07/15 01:12:46;;;;;;;13.23;4.15;;;15.70;99.90;;;;;;5053225;28;20881;-60
2022/07/15 01:15:13;;;;;;;13.88;4.00;;;15.70;99.90;;;;;;5052871;28;20036;-62
2022/07/15 01:17:38;;;;;;;9.70;3.60;;;15.70;99.90;;;;;;5053256;28;20041;-60
2022/07/15 01:20:06;;;;;;;13.32;4.22;;;15.60;99.90;;;;;;5052906;28;20104;-59
2022/07/15 01:22:32;;;;;;;11.07;3.97;;;15.70;99.90;;;;;;5052789;28;20094;-59
2022/07/15 01:24:58;;;;;;;10.73;4.03;;;15.70;99.90;;;;;;5053211;28;20064;-59
2022/07/15 01:27:25;;;;;;;11.25;3.90;;;15.70;99.90;;;;;;5052875;28;20040;-61
2022/07/15 01:29:50;;;;;;;7.53;3.70;;;15.70;99.90;;;;;;5053004;28;20112;-60
2022/07/15 01:32:16;;;;;;;8.63;4.32;;;15.70;99.90;;;;;;5052787;28;20120;-59
2022/07/15 01:34:42;;;;;;;10.35;3.92;;;15.60;99.90;;;;;;5052726;28;20052;-59
2022/07/15 01:37:08;;;;;;;12.85;3.95;;;15.60;99.90;;;;;;5052389;28;20086;-59
2022/07/15 01:39:33;;;;;;;9.77;4.28;;;15.60;99.90;;;;;;5052567;28;20029;-59
2022/07/15 01:41:59;;;;;;;11.32;4.22;;;15.60;99.90;;;;;;5052273;28;20029;-59
2022/07/15 01:44:25;;;;;;;15.02;4.43;;;15.60;99.90;;;;;;5052396;28;20033;-59
2022/07/15 01:46:50;;;;;;;13.63;4.68;;;15.50;99.90;;;;;;5052501;28;20055;-59
2022/07/15 01:49:22;;;;;;;15.77;4.90;;;15.50;99.90;;;;;;5052435;28;20436;-60
2022/07/15 01:51:55;;;;;;;11.82;4.75;;;15.50;99.90;;;;;;5052463;28;20035;-59
2022/07/15 01:54:25;;;;;;;14.82;5.22;;;15.50;99.90;;;;;;5052318;28;20048;-60
2022/07/15 01:56:51;;;;;;;11.50;5.60;;;15.40;99.90;;;;;;5052231;28;20033;-59
2022/07/15 01:59:18;;;;;;;11.75;4.82;;;15.40;99.90;;;;;;5052417;28;20490;-59
2022/07/15 02:01:44;;;;;;;14.05;5.32;;;15.40;99.90;;;;;;5052527;28;20547;-60
2022/07/15 02:04:12;;;;;;;15.57;5.32;;;15.40;99.90;;;;;;5052337;28;20032;-59
2022/07/15 02:06:38;;;;;;;11.82;4.65;;;15.30;99.90;;;;;;5051954;28;20025;-59
2022/07/15 02:09:04;;;;;;;13.85;5.40;;;15.30;99.90;;;;;;5052039;28;20021;-60
2022/07/15 02:11:29;;;;;;;11.27;5.10;;;15.20;99.90;;;;;;5052338;28;20473;-60
2022/07/15 02:13:59;;;;;;;12.05;5.32;;;15.20;99.90;;;;;;5050599;28;20029;-59
2022/07/15 02:16:25;;;;;;;14.27;4.78;;;15.30;99.90;;;;;;5052199;28;20483;-61
2022/07/15 02:18:52;;;;;;;12.18;5.20;;;15.20;99.90;;;;;;5052018;28;20100;-59
2022/07/15 02:21:18;;;;;;;14.85;5.47;;;15.10;99.90;;;;;;5051486;28;20705;-62
2022/07/15 02:23:44;;;;;;;18.38;5.95;;;15.20;99.90;;;;;;5051701;28;20501;-59
2022/07/15 02:26:09;;;;;;;14.50;5.30;;;15.10;99.90;;;;;;5051874;28;20040;-59
2022/07/15 02:28:35;;;;;;;12.82;5.53;;;15.10;99.90;;;;;;5052015;28;20493;-59
2022/07/15 02:31:01;;;;;;;15.45;5.55;;;15.10;99.90;;;;;;5051644;28;20099;-60
2022/07/15 02:33:27;;;;;;;13.13;5.13;;;15.10;99.90;;;;;;5051640;28;20036;-60
2022/07/15 02:35:52;;;;;;;11.27;4.90;;;15.10;99.90;;;;;;5051801;28;20094;-59
2022/07/15 02:38:19;;;;;;;13.85;5.43;;;15.10;99.90;;;;;;5051428;28;20118;-60
2022/07/15 02:40:45;;;;;;;13.45;5.88;;;15.10;99.90;;;;;;5051509;28;20025;-60
2022/07/15 02:43:10;;;;;;;13.18;5.35;;;15.00;99.90;;;;;;5051077;28;20095;-60
2022/07/15 02:45:37;;;;;;;12.82;5.20;;;15.00;99.90;;;;;;5051327;28;20025;-60
2022/07/15 02:48:04;;;;;;;13.02;5.30;;;15.00;99.90;;;;;;5050977;28;20121;-59
2022/07/15 02:50:30;;;;;;;13.23;5.40;;;14.90;99.90;;;;;;5050571;28;20108;-60
2022/07/15 02:52:56;;;;;;;13.40;4.70;;;15.00;99.90;;;;;;5051042;28;20084;-60
2022/07/15 02:55:21;;;;;;;13.93;5.60;;;15.00;99.90;;;;;;5051401;28;20472;-60
2022/07/15 02:57:47;;;;;;;12.20;5.05;;;14.90;99.90;;;;;;5051479;28;20252;-59
2022/07/15 03:00:17;;;;;;;14.90;5.22;;;15.00;99.90;;;;;;5049949;28;20473;-60
2022/07/15 03:02:44;;;;;;;12.73;5.25;;;14.90;99.90;;;;;;5049798;28;20024;-60
2022/07/15 03:05:11;;;;;;;10.43;4.88;;;14.90;99.90;;;;;;5051057;28;20027;-60
2022/07/15 03:07:37;;;;;;;15.30;5.55;;;14.90;99.90;;;;;;5051496;28;20067;-60
2022/07/15 03:10:04;;;;;;;12.27;5.38;;;14.90;99.90;;;;;;5051400;28;20135;-59
2022/07/15 03:12:31;;;;;;;10.00;5.13;;;14.90;99.90;;;;;;5051172;28;20112;-60
2022/07/15 03:14:57;;;;;;;16.65;5.20;;;14.90;99.90;;;;;;5051622;28;20029;-62
2022/07/15 03:17:23;;;;;;;13.93;5.25;;;14.90;99.90;;;;;;5050988;28;20098;-60
2022/07/15 03:19:49;;;;;;;12.75;5.10;;;15.00;99.90;;;;;;5051699;28;20029;-60
2022/07/15 03:22:14;;;;;;;14.50;5.22;;;15.00;99.90;;;;;;5051229;28;20550;-60
2022/07/15 03:24:40;;;;;;;16.98;4.70;;;15.00;99.90;;;;;;5051300;28;20029;-60
2022/07/15 03:27:06;;;;;;;13.57;5.65;;;14.90;99.90;;;;;;5051156;28;20393;-60
2022/07/15 03:29:32;;;;;;;16.05;5.88;;;14.90;99.90;;;;;;5051175;28;20485;-60
2022/07/15 03:31:57;;;;;;;12.75;5.20;;;14.80;99.90;;;;;;5050786;28;20048;-60
2022/07/15 03:34:25;;;;;;;12.70;6.65;;;14.80;99.90;;;;;;5051086;28;20036;-59
2022/07/15 03:36:51;;;;;;;13.80;6.65;;;14.70;99.90;;;;;;5051285;28;20422;-59
2022/07/15 03:39:16;;;;;;;16.20;6.70;;;14.70;99.90;;;;;;5050756;28;20033;-59
2022/07/15 03:41:42;;;;;;;12.20;6.57;;;14.70;99.90;;;;;;5066136;28;20032;-60
2022/07/15 03:44:08;;;;;;;16.85;6.78;;;14.70;99.90;;;;;;5050849;28;20029;-59
2022/07/15 03:46:33;;;;;;;16.20;7.43;;;14.60;99.90;;;;;;5051020;28;20057;-59
2022/07/15 03:49:00;;;;;;;14.23;7.03;;;14.70;99.90;;;;;;5051465;28;20485;-59
2022/07/15 03:51:30;;;;;;;19.48;8.15;;;14.70;99.90;;;;;;5049285;28;20555;-60
2022/07/15 03:53:58;;;;;;;13.73;7.13;;;14.70;99.90;;;;;;5050733;28;20065;-60
2022/07/15 03:56:24;;;;;;;11.60;6.80;;;14.70;99.90;;;;;;5050847;28;20067;-59
2022/07/15 03:58:49;;;;;;;18.13;8.07;;;14.60;99.90;;;;;;5050796;28;20106;-60
2022/07/15 04:01:15;;;;;;;10.82;6.97;;;14.60;99.90;;;;;;5054148;28;20032;-59
2022/07/15 04:03:41;;;;;;;14.48;6.82;;;14.60;99.90;;;;;;5054550;28;20048;-59
2022/07/15 04:06:06;;;;;;;13.85;6.78;;;14.60;99.90;;;;;;5053026;28;20021;-59
2022/07/15 04:08:32;;;;;;;16.85;6.80;;;14.50;99.90;;;;;;5053784;28;20021;-58
2022/07/15 04:10:58;;;;;;;14.05;7.20;;;14.30;99.90;;;;;;5054189;28;20025;-64
2022/07/15 04:13:23;;;;;;;15.68;7.63;;;14.40;99.90;;;;;;5054379;28;20448;-60
2022/07/15 04:15:49;;;;;;;16.83;8.38;;;14.50;99.90;;;;;;5054003;28;20021;-60
2022/07/15 04:18:14;;;;;;;19.20;9.57;;;14.70;99.90;;;;;;5036446;28;20028;-60
2022/07/15 04:20:40;;;;;;;14.80;9.30;;;14.90;99.90;;;;;;5054372;28;20033;-60
2022/07/15 04:23:06;;;;;;;18.05;8.48;;;14.80;99.90;;;;;;5052718;28;20136;-61
2022/07/15 04:25:32;;;;;;;14.38;7.72;;;14.80;99.90;;;;;;5054085;28;20091;-60
2022/07/15 04:27:57;;;;;;;12.65;7.63;;;14.70;99.90;;;;;;5054536;28;20102;-59
2022/07/15 04:30:23;;;;;;;11.98;6.85;;;14.70;99.90;;;;;;5054038;28;20496;-60
2022/07/15 04:32:49;;;;;;;12.45;6.75;;;14.60;99.90;;;;;;5053955;28;20029;-60
2022/07/15 04:35:15;;;;;;;15.75;7.38;;;14.50;99.90;;;;;;5052191;28;20420;-60
2022/07/15 04:37:40;;;;;;;13.48;7.45;;;14.70;99.90;;;;;;5053756;28;20036;-59
2022/07/15 04:40:07;;;;;;;16.42;7.07;;;14.70;99.90;;;;;;5053865;28;20025;-61
2022/07/15 04:42:33;;;;;;;17.15;7.47;;;14.80;99.90;;;;;;5053751;28;20436;-61
2022/07/15 04:44:58;;;;;;;12.65;7.68;;;14.90;99.90;;;;;;5053840;28;20025;-61
2022/07/15 04:47:24;;;;;;;12.48;7.15;;;14.90;99.90;;;;;;5053490;28;20397;-59
2022/07/15 04:52:34;;;;;;;10.85;6.88;;;14.70;99.90;;;;;;5053681;28;20055;-60
2022/07/15 04:54:59;;;;;;;16.33;7.93;;;14.70;99.90;;;;;;5053374;28;20025;-62
2022/07/15 04:57:25;;;;;;;16.05;8.43;;;14.70;99.90;;;;;;5053457;28;20545;-60
2022/07/15 04:59:51;;;;;;;20.30;8.27;;;14.90;99.90;;;;;;5053634;28;20653;-60
2022/07/15 05:02:16;;;;;;;18.95;8.30;;;15.00;99.90;;;;;;5053461;28;20048;-60
2022/07/15 05:04:42;;;;;;;18.48;7.95;;;15.10;99.90;;;;;;5053457;28;20029;-61
2022/07/15 05:07:08;;;;;;;17.13;7.50;;;15.20;99.90;;;;;;5053311;28;20597;-60
2022/07/15 05:09:33;;;;;;;15.25;7.90;;;15.30;99.90;;;;;;5053880;28;20359;-60
2022/07/15 05:11:59;;;;;;;11.38;6.68;;;15.40;99.90;;;;;;5053029;28;20134;-59
2022/07/15 05:14:25;;;;;;;22.33;6.97;;;15.40;99.90;;;;;;5053273;28;20036;-60
2022/07/15 05:16:51;;;;;;;13.73;7.68;;;15.50;99.90;;;;;;5052614;28;20044;-61
2022/07/15 05:19:17;;;;;;;15.75;7.38;;;15.60;99.90;;;;;;5051851;28;20159;-61
2022/07/15 05:21:42;;;;;;;13.57;7.00;;;15.70;99.90;;;;;;5053376;28;20488;-61
2022/07/15 05:24:08;;;;;;;14.18;6.88;;;15.80;99.90;;;;;;5053142;28;20024;-61
2022/07/15 05:26:33;;;;;;;14.23;6.75;;;15.80;99.90;;;;;;5053202;28;20421;-60
2022/07/15 05:28:59;;;;;;;13.02;6.53;;;15.90;99.90;;;;;;5053287;28;20025;-60
2022/07/15 05:31:25;;;;;;;19.05;6.25;;;16.00;99.90;;;;;;5052663;28;20059;-61
2022/07/15 05:33:52;;;;;;;12.52;6.35;;;16.00;99.90;;;;;;5051931;28;20033;-61
2022/07/15 05:36:18;;;;;;;16.02;5.95;;;16.10;99.90;;;;;;5053033;28;20043;-61
2022/07/15 05:38:44;;;;;;;16.65;6.95;;;16.20;99.90;;;;;;5053290;28;20032;-61
2022/07/15 05:41:10;;;;;;;14.50;6.28;;;16.40;99.90;;;;;;5052722;28;20017;-60
2022/07/15 05:43:36;;;;;;;12.68;6.00;;;16.40;99.90;;;;;;5052233;28;20025;-63
2022/07/15 05:46:02;;;;;;;10.93;5.70;;;16.50;99.90;;;;;;5052569;28;20112;-60
2022/07/15 05:48:27;;;;;;;12.80;5.50;;;16.40;99.90;;;;;;5052831;28;20037;-60
2022/07/15 05:50:53;;;;;;;13.73;5.45;;;16.50;99.90;;;;;;5051021;28;20081;-60
2022/07/15 05:53:19;;;;;;;13.40;5.32;;;16.50;99.90;;;;;;5052314;28;20048;-61
2022/07/15 05:55:44;;;;;;;10.55;6.20;;;16.60;99.90;;;;;;5052346;28;20029;-60
2022/07/15 05:58:10;;;;;;;11.77;5.22;;;16.80;99.90;;;;;;5052473;28;20513;-60
2022/07/15 06:00:37;;;;;;;14.48;5.40;;;17.00;99.90;;;;;;5052546;28;20382;-61
2022/07/15 06:03:03;;;;;;;10.55;3.70;;;17.10;99.90;;;;;;5052499;28;20020;-61
2022/07/15 06:05:30;;;;;;;10.55;4.00;;;17.10;99.90;;;;;;5052086;28;20017;-60
2022/07/15 06:07:56;;;;;;;12.55;4.05;;;17.10;99.90;;;;;;5052558;28;20025;-60
2022/07/15 06:10:22;;;;;;;11.32;3.67;;;17.20;99.90;;;;;;5052222;28;20072;-61
2022/07/15 06:12:48;;;;;;;13.02;4.57;;;17.30;99.90;;;;;;5067648;28;20051;-60
2022/07/15 06:15:14;;;;;;;12.40;4.00;;;17.40;99.90;;;;;;5050661;28;20033;-60
2022/07/15 06:17:40;;;;;;;8.50;3.63;;;17.40;99.90;;;;;;5052482;28;20490;-61
2022/07/15 06:20:07;;;;;;;12.90;3.38;;;17.50;99.90;;;;;;5052492;28;20029;-61
2022/07/15 06:22:33;;;;;;;7.00;2.25;;;17.60;99.90;;;;;;5052131;28;20025;-60
2022/07/15 06:24:59;;;;;;;6.40;2.30;;;17.80;99.90;;;;;;5051858;28;20090;-61
2022/07/15 06:27:25;;;;;;;7.45;2.50;;;17.90;99.90;;;;;;5051554;28;20021;-61
2022/07/15 06:29:51;;;;;;;9.10;2.00;;;18.00;99.90;;;;;;5051774;28;20029;-60
2022/07/15 06:32:18;;;;;;;8.43;2.10;;;17.90;99.90;;;;;;5051726;28;20029;-60
2022/07/15 06:34:44;;;;;;;8.32;1.80;;;17.80;99.90;;;;;;5051574;28;20071;-60
2022/07/15 06:37:10;;;;;;;9.55;2.08;;;17.80;99.90;;;;;;5051638;28;20060;-60
2022/07/15 06:39:36;;;;;;;7.55;2.47;;;17.80;99.90;;;;;;5051648;28;20029;-60
2022/07/15 06:42:02;;;;;;;5.72;1.80;;;17.80;99.90;;;;;;5050470;28;20025;-61
2022/07/15 06:44:28;;;;;;;4.72;1.60;;;17.80;99.90;;;;;;5051525;28;20032;-60
2022/07/15 06:46:53;;;;;;;10.38;1.67;;;17.90;99.90;;;;;;5052069;28;20033;-60
2022/07/15 06:49:19;;;;;;;5.22;1.55;;;18.00;99.90;;;;;;5052234;28;20033;-60
2022/07/15 06:51:45;;;;;;;6.32;1.40;;;18.30;99.90;;;;;;5051219;28;20029;-61
2022/07/15 06:54:11;;;;;;;3.58;1.20;;;19.40;99.90;;;;;;5051120;28;20041;-62
2022/07/15 06:56:37;;;;;;;5.15;1.15;;;20.70;99.90;;;;;;5051244;28;20029;-61
2022/07/15 06:59:03;;;;;;;5.10;1.30;;;21.40;99.90;;;;;;5051667;28;20032;-60
2022/07/15 07:01:29;;;;;;;5.85;1.27;;;22.60;99.90;;;;;;5051713;28;20036;-62
2022/07/15 07:03:55;;;;;;;5.18;1.23;;;23.10;99.90;;;;;;5051982;28;20017;-63
2022/07/15 07:06:21;;;;;;;4.88;1.30;;;22.90;99.90;;;;;;5051399;28;20112;-62
2022/07/15 07:08:48;;;;;;;4.82;1.52;;;24.30;99.90;;;;;;5051416;28;20488;-62
2022/07/15 07:11:15;;;;;;;3.58;1.33;;;25.00;98.80;;;;;;5051229;28;20029;-62
2022/07/15 07:13:40;;;;;;;6.97;1.05;;;25.00;97.20;;;;;;5051454;28;20049;-62
2022/07/15 07:16:06;;;;;;;3.40;0.93;;;25.70;95.90;;;;;;5051076;28;20103;-62
2022/07/15 07:18:32;;;;;;;4.68;1.30;;;25.50;93.60;;;;;;5050213;28;20033;-63
2022/07/15 07:20:58;;;;;;;2.92;0.90;;;25.40;93.70;;;;;;5049820;28;20522;-63
2022/07/15 07:23:26;;;;;;;5.55;1.00;;;25.60;93.70;;;;;;5051153;28;20082;-60
2022/07/15 07:25:53;;;;;;;3.70;1.08;;;25.50;92.90;;;;;;5049687;28;20021;-62
2022/07/15 07:28:19;;;;;;;3.72;1.00;;;25.50;93.20;;;;;;5050706;28;20403;-62
2022/07/15 07:30:46;;;;;;;5.60;0.80;;;25.50;93.30;;;;;;5049555;28;20032;-62
2022/07/15 07:33:11;;;;;;;4.95;1.00;;;24.70;93.70;;;;;;5050694;28;20520;-62
2022/07/15 07:35:38;;;;;;;5.65;0.95;;;25.00;93.20;;;;;;5053313;28;20110;-62
2022/07/15 07:38:03;;;;;;;3.90;0.82;;;25.80;92.20;;;;;;5055116;28;20028;-62
2022/07/15 07:40:29;;;;;;;3.30;0.80;;;26.50;91.20;;;;;;5054951;28;20524;-62
2022/07/15 07:42:56;;;;;;;4.10;1.17;;;27.20;87.80;;;;;;5054632;28;20029;-63
2022/07/15 07:45:25;;;;;;;2.55;0.70;;;27.70;84.40;;;;;;5053409;28;20120;-62
2022/07/15 07:47:51;;;;;;;6.85;1.35;;;27.40;83.40;;;;;;5054710;28;20025;-62
2022/07/15 07:50:17;;;;;;;5.07;0.82;;;26.70;84.80;;;;;;5054433;28;20086;-62
2022/07/15 07:52:43;;;;;;;3.95;0.90;;;26.00;88.40;;;;;;5054149;28;20509;-63
2022/07/15 07:55:09;;;;;;;4.03;0.85;;;27.20;85.80;;;;;;5054296;28;20037;-63
2022/07/15 07:57:35;;;;;;;2.88;0.95;;;28.30;81.30;;;;;;5036614;28;20033;-62
2022/07/15 08:00:03;;;;;;;4.13;0.90;;;28.40;82.00;;;;;;5054706;28;20041;-62
2022/07/15 08:02:29;;;;;;;3.38;0.98;;;28.80;79.30;;;;;;5054141;28;20036;-62
2022/07/15 08:04:55;;;;;;;3.85;0.98;;;28.60;78.90;;;;;;5054198;28;20028;-62
2022/07/15 08:07:21;;;;;;;2.92;0.80;;;28.70;77.20;;;;;;5053973;28;20025;-62
2022/07/15 08:09:47;;;;;;;4.35;0.90;;;27.90;77.40;;;;;;5054253;28;20021;-62
2022/07/15 08:12:13;;;;;;;5.07;1.10;;;27.60;79.40;;;;;;5054105;28;20496;-62
2022/07/15 08:14:38;;;;;;;4.00;1.10;;;27.90;79.80;;;;;;5053968;28;20060;-62
2022/07/15 08:17:04;;;;;;;5.07;0.82;;;27.70;79.10;;;;;;5054129;28;20551;-62
2022/07/15 08:19:29;;;;;;;3.15;0.95;;;28.10;78.50;;;;;;5054125;28;20024;-63
2022/07/15 08:21:55;;;;;;;3.78;1.05;;;28.50;76.10;;;;;;5053964;28;20032;-63
2022/07/15 08:24:21;;;;;;;2.72;0.80;;;29.30;72.50;;;;;;5057995;28;20482;-62
2022/07/15 08:26:46;;;;;;;6.40;1.08;;;29.40;72.20;;;;;;5063362;28;20021;-62
2022/07/15 08:29:12;;;;;;;3.95;0.98;;;28.80;74.20;;;;;;5073874;28;20040;-62
2022/07/15 08:31:38;;;;;;;3.63;0.82;;;29.30;72.50;;;;;;5055307;28;20033;-62
2022/07/15 08:34:05;;;;;;;2.00;0.90;;;29.30;69.30;;;;;;5066618;28;20381;-62
2022/07/15 08:36:31;;;;;;;3.83;1.10;;;28.70;70.10;;;;;;5074106;28;20029;-62
2022/07/15 08:38:56;;;;;;;3.50;0.90;;;28.30;71.60;;;;;;5073827;28;20054;-63
2022/07/15 08:41:22;;;;;;;2.75;0.80;;;28.00;73.20;;;;;;5072704;28;20074;-62
2022/07/15 08:43:48;;;;;;;3.65;0.80;;;29.00;72.30;;;;;;5070090;28;20021;-63
2022/07/15 08:46:14;;;;;;;4.15;1.00;;;29.10;69.90;;;;;;5071711;28;20021;-62
2022/07/15 08:48:47;;;;;;;2.28;0.82;;;30.10;68.90;;;;;;5068964;28;20059;-62
2022/07/15 08:51:13;;;;;;;2.95;0.73;;;30.20;67.10;;;;;;5071657;28;20469;-62
2022/07/15 08:53:40;;;;;;;2.75;0.90;;;29.10;68.50;;;;;;5069922;28;20099;-62
2022/07/15 08:56:06;;;;;;;2.22;0.63;;;27.90;70.90;;;;;;5069039;28;20021;-63
2022/07/15 08:58:35;;;;;;;2.10;0.63;;;28.20;69.30;;;;;;5056193;28;20032;-63
2022/07/15 09:01:01;;;;;;;2.88;0.73;;;28.50;66.50;;;;;;5055408;28;20098;-63
2022/07/15 09:03:27;;;;;;;2.30;0.70;;;28.30;67.40;;;;;;5053271;28;20478;-63
2022/07/15 09:05:52;;;;;;;1.95;0.60;;;29.00;66.50;;;;;;5070564;28;20108;-63
2022/07/15 09:08:19;;;;;;;2.95;0.88;;;29.40;65.60;;;;;;5070032;28;20062;-63
2022/07/15 09:10:47;;;;;;;2.15;0.70;;;29.90;65.10;;;;;;5056550;28;20017;-62
2022/07/15 09:13:35;;;;;;;2.95;0.63;;;29.90;65.10;;;;;;5064880;28;20032;-62
2022/07/15 09:16:08;;;;;;;2.42;0.57;;;29.00;66.60;;;;;;5052978;28;20025;-63
2022/07/15 09:18:39;;;;;;;3.47;0.80;;;28.90;67.40;;;;;;5053041;28;20032;-63
2022/07/15 09:21:22;;;;;;;2.00;0.65;;;30.00;65.70;;;;;;5070472;28;20025;-63
2022/07/15 09:23:48;;;;;;;2.10;0.73;;;29.60;66.10;;;;;;5065060;28;20036;-63
2022/07/15 09:26:26;;;;;;;2.17;0.60;;;30.40;63.60;;;;;;5072064;28;20088;-62
2022/07/15 09:28:52;;;;;;;4.20;0.60;;;31.40;59.90;;;;;;5072137;28;20044;-63
2022/07/15 09:34:18;;;;;;;3.63;0.60;;;30.60;60.70;;;;;;5052772;28;20512;-63
2022/07/15 09:36:50;;;;;;;1.92;0.50;;;31.10;59.80;;;;;;5070766;28;20108;-63
2022/07/15 09:39:16;;;;;;;2.83;0.65;;;30.70;60.30;;;;;;5059144;28;20036;-63
2022/07/15 09:41:44;;;;;;;3.88;0.82;;;30.30;60.30;;;;;;5057036;28;20020;-62
2022/07/15 09:44:14;;;;;;;4.65;0.80;;;29.60;61.40;;;;;;5071076;28;20058;-62
2022/07/15 09:46:44;;;;;;;3.47;0.80;;;28.40;64.40;;;;;;5057480;28;20398;-63
2022/07/15 09:49:11;;;;;;;2.17;0.60;;;27.90;65.10;;;;;;5052474;28;20066;-63
2022/07/15 09:51:54;;;;;;;1.90;0.65;;;27.80;65.20;;;;;;5057745;28;20074;-63
2022/07/15 09:54:21;;;;;;;2.88;0.60;;;28.40;64.50;;;;;;5065240;28;20136;-63
2022/07/15 09:56:48;;;;;;;2.08;0.70;;;30.20;62.40;;;;;;5072420;28;20055;-63
2022/07/15 09:59:15;;;;;;;3.50;0.68;;;30.90;60.10;;;;;;5071791;28;20025;-63
2022/07/15 10:01:42;;;;;;;1.80;0.70;;;30.60;59.40;;;;;;5066271;28;20025;-62
2022/07/15 10:04:09;;;;;;;1.42;0.50;;;30.20;60.10;;;;;;5056643;28;20103;-63
2022/07/15 10:06:38;;;;;;;1.98;0.70;;;30.30;60.30;;;;;;5071102;28;20562;-63
2022/07/15 10:09:04;;;;;;;3.55;0.70;;;30.30;59.60;;;;;;5072093;28;20125;-63
2022/07/15 10:11:33;;;;;;;2.05;0.68;;;29.00;60.80;;;;;;5070805;28;20389;-63
2022/07/15 10:14:15;;;;;;;2.03;0.60;;;28.00;64.00;;;;;;5067281;28;20605;-63
2022/07/15 10:16:56;;;;;;;3.35;1.00;;;27.90;64.30;;;;;;5068596;28;20085;-63
2022/07/15 10:20:04;;;;;;;2.92;0.60;;;29.10;62.20;;;;;;5067072;28;20028;-63
2022/07/15 10:22:36;;;;;;;1.85;0.60;;;29.10;60.60;;;;;;5066106;28;20443;-63
2022/07/15 10:25:15;;;;;;;1.05;0.80;;;29.70;60.20;;;;;;5071427;28;20050;-62
2022/07/15 10:28:04;;;;;;;2.08;0.60;;;30.30;59.80;;;;;;5071589;28;20029;-63
2022/07/15 10:30:30;;;;;;;2.50;0.70;;;30.30;59.20;;;;;;5070134;28;20060;-63
2022/07/15 10:33:16;;;;;;;2.22;0.85;;;29.40;61.00;;;;;;5071408;28;20043;-62
2022/07/15 10:35:49;;;;;;;2.75;0.90;;;28.20;63.90;;;;;;5070176;28;20029;-62
2022/07/15 10:38:33;;;;;;;4.60;1.00;;;27.80;64.80;;;;;;5071406;28;20036;-62
2022/07/15 10:41:14;;;;;;;4.05;1.05;;;27.30;66.20;;;;;;5071368;28;20035;-62
2022/07/15 10:43:51;;;;;;;5.28;1.65;;;27.00;66.70;;;;;;5071673;28;20615;-62
2022/07/15 10:46:16;;;;;;;3.72;1.30;;;27.70;64.80;;;;;;5071648;28;20020;-63
2022/07/15 10:49:02;;;;;;;5.22;1.10;;;28.90;63.40;;;;;;5071420;28;20024;-63
2022/07/15 10:51:43;;;;;;;5.22;1.30;;;29.20;64.10;;;;;;5066947;28;20364;-63
2022/07/15 10:54:30;;;;;;;3.10;1.17;;;29.90;62.60;;;;;;5070660;28;20636;-63
2022/07/15 10:56:56;;;;;;;5.88;1.00;;;30.00;60.40;;;;;;5069522;28;20489;-62
2022/07/15 10:59:24;;;;;;;2.05;0.90;;;29.20;64.20;;;;;;5071250;28;20060;-63
2022/07/15 11:02:12;;;;;;;4.80;1.30;;;28.60;63.80;;;;;;5071047;28;20477;-62
2022/07/15 11:04:38;;;;;;;2.55;1.10;;;27.30;66.50;;;;;;5069888;28;20013;-62
2022/07/15 11:07:07;;;;;;;3.88;1.42;;;26.90;66.80;;;;;;5071360;28;20020;-62
2022/07/15 11:09:57;;;;;;;5.13;1.00;;;26.30;68.60;;;;;;5070807;28;20024;-62
2022/07/15 11:12:23;;;;;;;4.97;1.27;;;27.50;68.00;;;;;;5071064;28;20104;-62
2022/07/15 11:14:52;;;;;;;2.70;1.52;;;27.90;65.30;;;;;;5069855;28;20025;-62
2022/07/15 11:17:30;;;;;;;4.65;1.20;;;27.40;65.00;;;;;;5070701;28;20028;-62
2022/07/15 11:20:03;;;;;;;5.45;1.60;;;27.60;65.90;;;;;;5070682;28;20116;-62
2022/07/15 11:22:29;;;;;;;2.85;1.52;;;27.90;64.20;;;;;;5070600;28;20024;-60
2022/07/15 11:24:56;;;;;;;5.85;1.33;;;27.90;64.80;;;;;;5071147;28;20473;-60
2022/07/15 11:27:23;;;;;;;5.25;1.45;;;27.40;65.10;;;;;;5070969;28;20028;-60
2022/07/15 11:29:52;;;;;;;4.20;1.70;;;27.40;66.00;;;;;;5069567;28;20241;-63
2022/07/15 11:32:20;;;;;;;6.45;1.52;;;27.20;65.90;;;;;;5071111;28;20427;-61
2022/07/15 11:34:50;;;;;;;3.60;1.70;;;28.10;65.10;;;;;;5069645;28;20078;-63
2022/07/15 11:37:18;;;;;;;6.05;1.38;;;28.80;63.20;;;;;;5070895;28;20533;-62
2022/07/15 11:39:50;;;;;;;3.40;1.27;;;29.10;62.30;;;;;;5069485;28;20500;-62
2022/07/15 11:45:09;;;;;;;2.45;1.23;;;29.80;60.30;;;;;;5071082;28;20085;-61
2022/07/15 11:47:49;;;;;;;5.35;1.45;;;29.40;61.00;;;;;;5070646;28;20021;-61
2022/07/15 11:50:15;;;;;;;3.58;1.42;;;29.40;61.30;;;;;;5070707;28;20032;-63
2022/07/15 11:52:40;;;;;;;4.97;1.75;;;29.00;61.50;;;;;;5070738;28;20113;-63
2022/07/15 11:55:07;;;;;;;3.70;1.45;;;29.00;62.40;;;;;;5070731;28;20072;-63
2022/07/15 11:57:34;;;;;;;6.18;1.73;;;29.40;62.30;;;;;;5070877;28;20044;-62
2022/07/15 12:00:00;;;;;;;5.82;1.50;;;29.80;60.40;;;;;;5070466;28;20473;-63
2022/07/15 12:02:27;;;;;;;4.25;1.42;;;30.80;61.20;;;;;;5070418;28;20021;-63
2022/07/15 12:05:04;;;;;;;4.05;1.52;;;30.60;59.40;;;;;;5070722;28;20028;-62
2022/07/15 12:07:47;;;;;;;2.45;1.15;;;29.20;62.10;;;;;;5069256;28;20048;-62
2022/07/15 12:10:14;;;;;;;4.40;1.33;;;28.70;63.80;;;;;;5070263;28;20389;-63
2022/07/15 12:12:54;;;;;;;3.75;1.60;;;29.40;63.30;;;;;;5070789;28;20601;-63
2022/07/15 12:15:21;;;;;;;3.78;1.60;;;30.10;60.80;;;;;;5069036;28;20388;-63
2022/07/15 12:17:55;;;;;;;4.72;1.30;;;30.20;59.60;;;;;;5070702;28;20101;-62
2022/07/15 12:20:21;;;;;;;3.78;1.25;;;29.20;60.50;;;;;;5070543;28;20029;-63
2022/07/15 12:23:08;;;;;;;4.32;1.08;;;28.50;61.60;;;;;;5073141;28;20033;-63
2022/07/15 12:25:34;;;;;;;2.55;1.05;;;28.00;63.60;;;;;;5074085;28;20070;-63
2022/07/15 12:28:00;;;;;;;2.53;1.10;;;28.00;64.10;;;;;;5074198;28;20021;-62
2022/07/15 12:30:35;;;;;;;2.45;1.30;;;27.50;65.20;;;;;;5074262;28;20161;-62
2022/07/15 12:33:34;;;;;;;4.82;1.20;;;27.30;64.80;;;;;;5073166;28;20028;-62
2022/07/15 12:36:14;;;;;;;4.68;1.13;;;27.20;65.20;;;;;;5061506;28;20048;-61
2022/07/15 12:38:40;;;;;;;3.83;1.38;;;26.70;66.80;;;;;;5073707;28;20120;-61
2022/07/15 12:41:22;;;;;;;4.15;1.30;;;26.80;66.40;;;;;;5073548;28;20111;-61
2022/07/15 12:43:50;;;;;;;2.47;0.85;;;26.80;66.60;;;;;;5073784;28;20154;-61
2022/07/15 12:46:16;;;;;;;3.80;1.30;;;28.10;65.30;;;;;;5073063;28;20032;-62
2022/07/15 12:48:49;;;;;;;4.47;1.10;;;29.30;61.90;;;;;;5074574;28;20103;-61
2022/07/15 12:51:16;;;;;;;8.02;1.23;;;29.50;61.40;;;;;;5073267;28;20074;-61
2022/07/15 12:53:42;;;;;;;8.88;1.65;;;29.90;60.50;;;;;;5072049;28;20040;-62
2022/07/15 12:56:08;;;;;;;4.82;1.08;;;29.00;61.40;;;;;;5068754;28;20029;-63